createdAt,value
2018-07-12T00:01:40.794Z,54.60
2018-07-12T00:04:08.064Z,49.37
2018-07-12T00:06:35.353Z,49.83
2018-07-12T00:09:02.649Z,51.70
2018-07-12T00:11:29.997Z,44.90
2018-07-12T00:13:57.245Z,47.10
2018-07-12T00:16:24.497Z,52.20
2018-07-12T00:18:51.787Z,52.90
2018-07-12T00:21:19.081Z,36.57
2018-07-12T00:23:46.417Z,38.13
2018-07-12T00:26:13.687Z,37.27
2018-07-12T00:28:40.937Z,46.10
2018-07-12T00:31:08.209Z,30.13
2018-07-12T00:33:35.493Z,37.43
2018-07-12T00:36:02.753Z,42.57
2018-07-12T00:38:30.155Z,39.13
2018-07-12T00:40:57.434Z,34.40
2018-07-12T00:43:24.676Z,42.63
2018-07-12T00:45:51.934Z,33.27
2018-07-12T00:48:19.190Z,45.17
2018-07-12T00:50:46.465Z,38.53
2018-07-12T00:53:13.730Z,52.17
2018-07-12T00:55:40.969Z,37.47
2018-07-12T00:58:08.253Z,50.10
2018-07-12T01:00:35.580Z,44.37
2018-07-12T01:03:02.881Z,47.00
2018-07-12T01:05:30.143Z,55.30
2018-07-12T01:07:57.417Z,56.30
2018-07-12T01:10:24.689Z,64.57
2018-07-12T01:12:51.942Z,58.07
2018-07-12T01:15:19.216Z,54.93
2018-07-12T01:17:46.473Z,51.70
2018-07-12T01:20:13.766Z,58.93
2018-07-12T01:22:41.013Z,68.23
2018-07-12T01:25:08.368Z,58.20
2018-07-12T01:27:35.643Z,68.03
2018-07-12T01:30:02.904Z,84.03
2018-07-12T01:32:30.168Z,53.60
2018-07-12T01:34:57.425Z,55.17
2018-07-12T01:37:24.782Z,55.73
2018-07-12T01:39:52.313Z,75.87
2018-07-12T01:42:19.584Z,78.23
2018-07-12T01:44:46.869Z,74.93
2018-07-12T01:47:14.140Z,60.57
2018-07-12T01:49:41.413Z,75.47
2018-07-12T01:52:08.673Z,58.93
2018-07-12T01:54:35.926Z,80.23
2018-07-12T01:57:03.237Z,69.53
2018-07-12T01:59:30.479Z,58.93
2018-07-12T02:01:57.777Z,62.93
2018-07-12T02:04:25.030Z,69.10
2018-07-12T02:06:52.337Z,57.97
2018-07-12T02:09:19.617Z,51.47
2018-07-12T02:11:46.891Z,57.57
2018-07-12T02:14:14.162Z,62.90
2018-07-12T02:16:41.416Z,73.03
2018-07-12T02:19:08.685Z,76.27
2018-07-12T02:21:35.937Z,58.47
2018-07-12T02:24:03.213Z,58.93
2018-07-12T02:26:30.460Z,63.27
2018-07-12T02:28:57.769Z,68.50
2018-07-12T02:31:25.013Z,67.00
2018-07-12T02:33:52.299Z,52.20
2018-07-12T02:36:19.549Z,51.37
2018-07-12T02:38:46.816Z,70.60
2018-07-12T02:41:14.084Z,52.80
2018-07-12T02:43:41.381Z,63.67
2018-07-12T02:46:08.645Z,76.43
2018-07-12T02:48:36.063Z,69.50
2018-07-12T02:51:03.341Z,49.83
2018-07-12T02:53:30.550Z,47.53
2018-07-12T02:55:57.758Z,58.67
2018-07-12T02:58:24.987Z,74.40
2018-07-12T03:00:52.235Z,54.33
2018-07-12T03:03:19.465Z,54.90
2018-07-12T03:05:46.699Z,79.37
2018-07-12T03:08:13.938Z,57.17
2018-07-12T03:10:41.145Z,76.13
2018-07-12T03:13:08.420Z,82.37
2018-07-12T03:15:35.664Z,53.73
2018-07-12T03:18:02.862Z,50.03
2018-07-12T03:20:30.122Z,60.67
2018-07-12T03:22:57.349Z,82.37
2018-07-12T03:25:24.595Z,90.27
2018-07-12T03:27:51.843Z,52.53
2018-07-12T03:30:19.324Z,84.43
2018-07-12T03:32:46.573Z,85.27
2018-07-12T03:35:13.811Z,63.73
2018-07-12T03:37:43.434Z,54.93
2018-07-12T03:40:10.648Z,77.10
2018-07-12T03:42:37.855Z,61.47
2018-07-12T03:45:05.106Z,66.80
2018-07-12T03:47:32.326Z,54.87
2018-07-12T03:49:59.601Z,75.93
2018-07-12T03:52:26.847Z,98.90
2018-07-12T03:54:54.179Z,65.20
2018-07-12T03:57:21.401Z,92.30
2018-07-12T03:59:48.661Z,103.63
2018-07-12T04:02:15.878Z,92.53
2018-07-12T04:04:43.102Z,64.63
2018-07-12T04:07:10.341Z,82.23
2018-07-12T04:09:37.594Z,71.93
2018-07-12T04:12:04.809Z,111.27
2018-07-12T04:14:32.030Z,105.90
2018-07-12T04:16:59.250Z,87.87
2018-07-12T04:19:26.565Z,116.63
2018-07-12T04:21:53.818Z,144.33
2018-07-12T04:24:21.029Z,122.93
2018-07-12T04:26:48.269Z,140.60
2018-07-12T04:29:15.499Z,142.03
2018-07-12T04:31:42.721Z,147.60
2018-07-12T04:34:09.935Z,90.70
2018-07-12T04:36:37.225Z,152.80
2018-07-12T04:39:05.149Z,151.17
2018-07-12T04:41:32.601Z,173.97
2018-07-12T04:43:59.856Z,205.83
2018-07-12T04:46:27.106Z,174.27
2018-07-12T04:48:54.358Z,147.83
2018-07-12T04:51:21.574Z,225.87
2018-07-12T04:53:48.794Z,176.30
2018-07-12T04:56:16.047Z,259.37
2018-07-12T04:58:43.336Z,344.13
2018-07-12T05:01:10.631Z,314.77
2018-07-12T05:03:37.873Z,332.73
2018-07-12T05:06:06.584Z,340.10
2018-07-12T05:08:33.809Z,330.63
2018-07-12T05:11:01.071Z,337.47
2018-07-12T05:13:28.353Z,190.33
2018-07-12T05:15:55.567Z,275.30
2018-07-12T05:18:22.814Z,200.53
2018-07-12T05:20:51.424Z,259.13
2018-07-12T05:23:18.657Z,245.47
2018-07-12T05:25:45.874Z,204.53
2018-07-12T05:28:13.098Z,162.57
2018-07-12T05:30:40.321Z,175.17
2018-07-12T05:33:07.575Z,143.73
2018-07-12T05:35:35.822Z,190.37
2018-07-12T05:38:04.080Z,165.07
2018-07-12T05:40:32.436Z,167.00
2018-07-12T05:43:00.734Z,140.90
2018-07-12T05:45:29.017Z,177.83
2018-07-12T05:47:57.349Z,103.10
2018-07-12T05:50:25.621Z,142.70
2018-07-12T05:52:53.858Z,104.60
2018-07-12T05:55:22.122Z,109.10
2018-07-12T05:57:50.402Z,101.50
2018-07-12T06:00:18.677Z,140.77
2018-07-12T06:02:47.022Z,72.57
2018-07-12T06:05:15.329Z,97.43
2018-07-12T06:07:43.636Z,102.97
2018-07-12T06:10:11.922Z,72.63
2018-07-12T06:12:40.182Z,117.37
2018-07-12T06:15:08.232Z,103.43
2018-07-12T06:17:36.617Z,65.57
2018-07-12T06:20:07.206Z,70.73
2018-07-12T06:22:35.529Z,92.50
2018-07-12T06:25:04.062Z,65.30
2018-07-12T06:27:32.309Z,58.53
2018-07-12T06:30:00.699Z,80.43
2018-07-12T06:32:28.893Z,62.33
2018-07-12T06:34:57.356Z,62.77
2018-07-12T06:37:25.733Z,75.83
2018-07-12T06:39:53.994Z,57.63
2018-07-12T06:42:22.261Z,74.43
2018-07-12T06:44:50.510Z,94.50
2018-07-12T06:47:18.758Z,86.53
2018-07-12T06:49:47.063Z,68.80
2018-07-12T06:52:15.413Z,64.87
2018-07-12T06:54:43.769Z,57.03
2018-07-12T06:57:12.095Z,65.17
2018-07-12T06:59:40.333Z,45.83
2018-07-12T07:02:08.618Z,57.77
2018-07-12T07:04:36.873Z,50.93
2018-07-12T07:07:05.128Z,65.77
2018-07-12T07:09:33.414Z,48.87
2018-07-12T07:12:01.675Z,54.73
2018-07-12T07:14:29.971Z,44.67
2018-07-12T07:16:58.241Z,45.67
2018-07-12T07:19:26.538Z,46.80
2018-07-12T07:21:54.818Z,43.23
2018-07-12T07:24:23.278Z,36.70
2018-07-12T07:26:51.623Z,37.50
2018-07-12T07:29:19.895Z,34.30
2018-07-12T07:31:48.179Z,27.13
2018-07-12T07:34:16.164Z,28.43
2018-07-12T07:36:44.217Z,21.77
2018-07-12T07:39:12.466Z,19.00
2018-07-12T07:41:40.885Z,18.97
2018-07-12T07:44:09.145Z,16.90
2018-07-12T07:46:37.180Z,18.77
2018-07-12T07:49:05.494Z,17.93
2018-07-12T07:51:33.770Z,19.40
2018-07-12T07:54:01.996Z,16.73
2018-07-12T07:56:30.277Z,17.30
2018-07-12T07:58:58.554Z,13.57
2018-07-12T08:01:26.836Z,15.13
2018-07-12T08:03:55.314Z,15.00
2018-07-12T08:06:23.593Z,12.47
2018-07-12T08:08:52.047Z,9.50
2018-07-12T08:11:20.349Z,10.03
2018-07-12T08:13:48.825Z,10.67
2018-07-12T08:16:17.346Z,7.87
2018-07-12T08:18:45.570Z,9.20
2018-07-12T08:21:17.236Z,9.10
2018-07-12T08:23:47.377Z,9.23
2018-07-12T08:26:16.050Z,8.23
2018-07-12T08:28:44.365Z,9.53
2018-07-12T08:31:13.251Z,6.90
2018-07-12T08:33:41.487Z,7.00
2018-07-12T08:36:10.042Z,5.63
2018-07-12T08:38:38.518Z,6.57
2018-07-12T08:41:06.830Z,9.97
2018-07-12T08:43:35.089Z,6.33
2018-07-12T08:46:03.367Z,6.80
2018-07-12T08:48:31.693Z,6.37
2018-07-12T08:50:59.910Z,6.33
2018-07-12T08:53:28.229Z,6.40
2018-07-12T08:55:56.470Z,5.00
2018-07-12T08:58:25.468Z,4.67
2018-07-12T09:00:53.713Z,5.57
2018-07-12T09:03:22.085Z,6.30
2018-07-12T09:05:50.325Z,4.03
2018-07-12T09:08:18.590Z,7.05
2018-07-12T09:10:46.877Z,4.17
2018-07-12T09:13:15.234Z,5.55
2018-07-12T09:15:43.536Z,4.25
2018-07-12T09:18:11.765Z,4.00
2018-07-12T09:20:40.018Z,6.10
2018-07-12T09:23:08.283Z,5.55
2018-07-12T09:25:36.711Z,7.37
2018-07-12T09:28:04.963Z,7.28
2018-07-12T09:30:33.228Z,9.18
2018-07-12T09:33:01.478Z,6.83
2018-07-12T09:35:29.722Z,4.90
2018-07-12T09:37:57.965Z,5.53
2018-07-12T09:40:26.275Z,4.37
2018-07-12T09:43:09.241Z,3.47
2018-07-12T09:45:38.220Z,6.17
2018-07-12T09:48:06.480Z,3.45
2018-07-12T09:50:34.758Z,3.40
2018-07-12T09:53:04.752Z,4.22
2018-07-12T09:55:33.398Z,3.40
2018-07-12T09:58:12.994Z,5.55
2018-07-12T10:00:46.722Z,3.50
2018-07-12T10:03:20.009Z,6.08
2018-07-12T10:05:53.754Z,4.50
2018-07-12T10:08:27.501Z,4.60
2018-07-12T10:11:01.186Z,7.75
2018-07-12T10:13:35.228Z,4.12
2018-07-12T10:16:03.545Z,4.10
2018-07-12T10:18:32.214Z,3.05
2018-07-12T10:21:01.033Z,3.72
2018-07-12T10:23:30.565Z,7.33
2018-07-12T10:25:59.892Z,4.60
2018-07-12T10:28:28.245Z,4.17
2018-07-12T10:30:56.653Z,13.32
2018-07-12T10:33:24.970Z,3.60
2018-07-12T10:35:53.254Z,3.77
2018-07-12T10:38:21.522Z,5.83
2018-07-12T10:40:49.857Z,5.75
2018-07-12T10:43:18.150Z,6.35
2018-07-12T10:45:46.616Z,3.55
2018-07-12T10:48:14.890Z,4.92
2018-07-12T10:50:43.393Z,5.80
2018-07-12T10:53:11.721Z,5.22
2018-07-12T10:55:39.978Z,3.55
2018-07-12T10:58:08.317Z,3.95
2018-07-12T11:00:36.620Z,5.22
2018-07-12T11:03:04.908Z,4.80
2018-07-12T11:05:33.382Z,5.30
2018-07-12T11:08:01.722Z,4.22
2018-07-12T11:10:30.063Z,3.98
2018-07-12T11:13:12.819Z,7.75
2018-07-12T11:15:41.357Z,3.65
2018-07-12T11:18:09.353Z,3.67
2018-07-12T11:20:37.589Z,5.35
2018-07-12T11:23:05.870Z,4.00
2018-07-12T11:25:34.102Z,3.00
2018-07-12T11:28:02.903Z,3.77
2018-07-12T11:30:31.197Z,7.13
2018-07-12T11:32:59.853Z,3.10
2018-07-12T11:35:28.098Z,6.77
2018-07-12T11:37:56.395Z,3.60
2018-07-12T11:40:24.676Z,4.37
2018-07-12T11:42:52.926Z,5.33
2018-07-12T11:45:21.186Z,3.17
2018-07-12T11:47:49.449Z,4.73
2018-07-12T11:50:17.738Z,3.53
2018-07-12T11:52:46.088Z,7.60
2018-07-12T11:55:14.269Z,3.30
2018-07-12T11:57:48.896Z,3.70
2018-07-12T12:00:17.274Z,3.93
2018-07-12T12:02:45.586Z,4.13
2018-07-12T12:05:13.888Z,3.98
2018-07-12T12:07:42.133Z,5.12
2018-07-12T12:10:10.430Z,6.53
2018-07-12T12:12:38.732Z,3.75
2018-07-12T12:15:06.987Z,6.78
2018-07-12T12:17:35.273Z,5.20
2018-07-12T12:20:03.602Z,6.50
2018-07-12T12:22:31.889Z,3.67
2018-07-12T12:25:00.191Z,6.20
2018-07-12T12:27:28.493Z,4.45
2018-07-12T12:29:56.737Z,3.75
2018-07-12T12:32:25.037Z,5.45
2018-07-12T12:34:53.299Z,7.20
2018-07-12T12:37:21.564Z,5.78
2018-07-12T12:39:49.818Z,6.47
2018-07-12T12:42:18.078Z,5.65
2018-07-12T12:44:46.382Z,6.90
2018-07-12T12:47:14.689Z,6.55
2018-07-12T12:49:43.022Z,7.80
2018-07-12T12:52:11.301Z,8.25
2018-07-12T12:54:39.561Z,8.03
2018-07-12T12:57:07.994Z,6.67
2018-07-12T12:59:36.306Z,9.30
2018-07-12T13:02:04.611Z,7.10
2018-07-12T13:04:33.142Z,9.43
2018-07-12T13:07:01.430Z,12.10
2018-07-12T13:09:29.780Z,10.00
2018-07-12T13:11:58.154Z,5.40
2018-07-12T13:14:26.574Z,10.33
2018-07-12T13:17:00.633Z,9.93
2018-07-12T13:19:29.005Z,7.93
2018-07-12T13:21:57.298Z,9.27
2018-07-12T13:24:25.621Z,10.87
2018-07-12T13:26:53.922Z,8.10
2018-07-12T13:29:22.216Z,6.10
2018-07-12T13:31:50.544Z,8.17
2018-07-12T13:34:19.053Z,13.47
2018-07-12T13:36:47.331Z,8.97
2018-07-12T13:39:15.682Z,10.72
2018-07-12T13:41:43.953Z,11.28
2018-07-12T13:44:21.235Z,10.70
2018-07-12T13:46:50.853Z,6.00
2018-07-12T13:49:19.080Z,5.78
2018-07-12T13:51:51.404Z,8.73
2018-07-12T13:54:20.178Z,7.15
2018-07-12T13:56:50.115Z,6.85
2018-07-12T13:59:18.408Z,4.53
2018-07-12T14:01:46.755Z,8.45
2018-07-12T14:04:15.025Z,8.53
2018-07-12T14:06:43.289Z,6.40
2018-07-12T14:09:12.953Z,7.37
2018-07-12T14:11:41.236Z,7.62
2018-07-12T14:14:09.915Z,7.28
2018-07-12T14:16:38.211Z,15.10
2018-07-12T14:19:06.538Z,6.60
2018-07-12T14:21:34.497Z,10.10
2018-07-12T14:24:02.744Z,11.97
2018-07-12T14:26:31.038Z,9.20
2018-07-12T14:28:59.492Z,8.75
2018-07-12T14:31:27.731Z,13.30
2018-07-12T14:33:56.009Z,6.45
2018-07-12T14:36:24.286Z,6.47
2018-07-12T14:38:52.558Z,6.45
2018-07-12T14:41:20.821Z,4.40
2018-07-12T14:43:49.198Z,10.00
2018-07-12T14:46:17.526Z,8.20
2018-07-12T14:48:45.995Z,5.47
2018-07-12T14:51:14.261Z,8.68
2018-07-12T14:53:42.644Z,6.12
2018-07-12T14:56:10.895Z,5.17
2018-07-12T14:58:39.354Z,4.62
2018-07-12T15:01:07.602Z,6.10
2018-07-12T15:03:35.921Z,5.45
2018-07-12T15:06:04.390Z,4.60
2018-07-12T15:08:32.718Z,3.55
2018-07-12T15:11:01.002Z,3.08
2018-07-12T15:13:29.410Z,3.52
2018-07-12T15:15:57.688Z,5.47
2018-07-12T15:18:25.996Z,6.58
2018-07-12T15:20:54.247Z,6.70
2018-07-12T15:23:22.537Z,6.85
2018-07-12T15:25:50.814Z,8.78
2018-07-12T15:28:19.147Z,10.23
2018-07-12T15:30:47.363Z,7.65
2018-07-12T15:33:15.671Z,7.62
2018-07-12T15:35:43.968Z,8.00
2018-07-12T15:38:12.193Z,6.00
2018-07-12T15:40:40.426Z,7.58
2018-07-12T15:43:08.786Z,4.12
2018-07-12T15:45:37.189Z,5.87
2018-07-12T15:48:05.469Z,3.70
2018-07-12T15:50:33.726Z,4.90
2018-07-12T15:53:02.014Z,4.63
2018-07-12T15:55:30.231Z,5.27
2018-07-12T15:57:58.517Z,5.53
2018-07-12T16:00:26.785Z,6.70
2018-07-12T16:02:55.182Z,6.80
2018-07-12T16:05:23.461Z,5.93
2018-07-12T16:07:52.594Z,7.57
2018-07-12T16:10:20.614Z,8.57
2018-07-12T16:12:48.827Z,12.73
2018-07-12T16:15:17.173Z,10.50
2018-07-12T16:17:45.503Z,7.70
2018-07-12T16:20:13.758Z,8.73
2018-07-12T16:22:41.779Z,9.10
2018-07-12T16:25:10.039Z,11.67
2018-07-12T16:27:38.390Z,9.87
2018-07-12T16:30:06.924Z,7.57
2018-07-12T16:32:35.309Z,9.57
2018-07-12T16:35:03.685Z,10.23
2018-07-12T16:37:31.985Z,8.73
2018-07-12T16:40:00.317Z,7.27
2018-07-12T16:42:29.614Z,10.13
2018-07-12T16:44:57.897Z,10.50
2018-07-12T16:47:26.186Z,11.17
2018-07-12T16:49:54.457Z,8.57
2018-07-12T16:52:22.721Z,7.73
2018-07-12T16:54:50.999Z,8.23
2018-07-12T16:57:19.276Z,9.57
2018-07-12T16:59:47.622Z,9.00
2018-07-12T17:02:15.916Z,9.03
2018-07-12T17:04:44.251Z,9.77
2018-07-12T17:07:12.558Z,7.57
2018-07-12T17:09:40.858Z,10.00
2018-07-12T17:12:09.169Z,6.27
2018-07-12T17:14:37.486Z,6.30
2018-07-12T17:17:05.513Z,8.23
2018-07-12T17:19:33.834Z,8.03
2018-07-12T17:22:02.062Z,6.40
2018-07-12T17:24:30.319Z,8.37
2018-07-12T17:26:58.795Z,5.83
2018-07-12T17:29:27.271Z,9.50
2018-07-12T17:31:55.686Z,6.47
2018-07-12T17:34:24.116Z,8.87
2018-07-12T17:36:52.144Z,10.90
2018-07-12T17:39:20.407Z,6.97
2018-07-12T17:41:48.853Z,5.23
2018-07-12T17:44:17.109Z,6.60
2018-07-12T17:46:45.458Z,9.03
2018-07-12T17:49:13.862Z,6.97
2018-07-12T17:51:42.178Z,6.83
2018-07-12T17:54:10.670Z,6.70
2018-07-12T17:56:39.005Z,6.87
2018-07-12T17:59:07.337Z,6.23
2018-07-12T18:01:35.605Z,8.97
2018-07-12T18:04:03.873Z,4.53
2018-07-12T18:06:32.126Z,7.80
2018-07-12T18:09:00.462Z,10.23
2018-07-12T18:11:28.707Z,5.60
2018-07-12T18:13:56.994Z,7.43
2018-07-12T18:16:25.375Z,6.23
2018-07-12T18:18:53.655Z,6.63
2018-07-12T18:21:22.097Z,6.90
2018-07-12T18:23:50.389Z,9.10
2018-07-12T18:26:18.677Z,5.37
2018-07-12T18:28:46.907Z,6.07
2018-07-12T18:31:15.158Z,8.77
2018-07-12T18:33:43.406Z,6.17
2018-07-12T18:36:11.673Z,8.57
2018-07-12T18:38:39.935Z,6.53
2018-07-12T18:41:08.229Z,9.03
2018-07-12T18:43:36.536Z,9.27
2018-07-12T18:46:04.927Z,9.13
2018-07-12T18:48:33.217Z,7.47
2018-07-12T18:51:01.638Z,12.77
2018-07-12T18:53:29.897Z,9.60
2018-07-12T18:55:58.429Z,10.57
2018-07-12T18:58:26.617Z,10.70
2018-07-12T19:00:55.003Z,10.27
2018-07-12T19:03:23.257Z,10.60
2018-07-12T19:05:51.317Z,12.93
2018-07-12T19:08:19.626Z,10.17
2018-07-12T19:10:48.070Z,12.77
2018-07-12T19:13:16.585Z,14.40
2018-07-12T19:15:44.913Z,13.80
2018-07-12T19:18:13.286Z,13.20
2018-07-12T19:20:41.670Z,15.77
2018-07-12T19:23:09.961Z,10.03
2018-07-12T19:25:38.310Z,14.77
2018-07-12T19:28:06.626Z,11.73
2018-07-12T19:30:35.082Z,14.53
2018-07-12T19:33:03.534Z,15.10
2018-07-12T19:35:31.766Z,14.67
2018-07-12T19:38:00.106Z,14.00
2018-07-12T19:40:28.413Z,13.40
2018-07-12T19:42:56.861Z,15.73
2018-07-12T19:45:25.173Z,19.20
2018-07-12T19:47:53.549Z,19.17
2018-07-12T19:50:22.968Z,13.27
2018-07-12T19:52:51.058Z,16.77
2018-07-12T19:55:19.578Z,14.67
2018-07-12T19:57:47.834Z,19.13
2018-07-12T20:00:16.123Z,17.87
2018-07-12T20:02:44.613Z,20.43
2018-07-12T20:05:12.929Z,19.83
2018-07-12T20:07:41.081Z,26.00
2018-07-12T20:10:09.442Z,15.47
2018-07-12T20:13:03.480Z,21.83
2018-07-12T20:15:31.933Z,20.40
2018-07-12T20:18:00.238Z,17.83
2018-07-12T20:20:28.551Z,21.83
2018-07-12T20:22:56.835Z,22.03
2018-07-12T20:25:25.157Z,26.37
2018-07-12T20:27:53.393Z,21.37
2018-07-12T20:30:21.702Z,20.93
2018-07-12T20:32:49.987Z,24.20
2018-07-12T20:35:18.249Z,23.47
2018-07-12T20:37:46.578Z,22.13
2018-07-12T20:40:14.850Z,21.67
2018-07-12T20:42:43.226Z,23.97
2018-07-12T20:45:11.534Z,22.80
2018-07-12T20:47:39.648Z,20.40
2018-07-12T20:50:08.083Z,20.67
2018-07-12T20:52:36.439Z,18.77
2018-07-12T20:55:04.763Z,24.63
2018-07-12T20:57:33.033Z,23.57
2018-07-12T21:00:01.434Z,25.47
2018-07-12T21:02:29.706Z,25.97
2018-07-12T21:04:57.994Z,21.27
2018-07-12T21:07:26.534Z,26.73
2018-07-12T21:09:54.785Z,27.40
2018-07-12T21:12:23.022Z,23.57
2018-07-12T21:14:51.302Z,26.37
2018-07-12T21:17:19.737Z,28.03
2018-07-12T21:19:48.032Z,23.37
2018-07-12T21:22:16.347Z,21.47
2018-07-12T21:24:44.652Z,24.53
2018-07-12T21:27:12.950Z,27.90
2018-07-12T21:29:40.925Z,26.57
2018-07-12T21:32:09.213Z,29.87
2018-07-12T21:34:37.714Z,28.97
2018-07-12T21:37:05.997Z,27.30
2018-07-12T21:39:34.257Z,26.17
2018-07-12T21:42:02.581Z,30.40
2018-07-12T21:44:31.037Z,30.77
2018-07-12T21:46:58.987Z,31.80
2018-07-12T21:49:27.250Z,32.23
2018-07-12T21:51:55.599Z,32.23
2018-07-12T21:54:23.802Z,29.50
2018-07-12T21:56:52.226Z,26.33
2018-07-12T21:59:20.571Z,29.00
2018-07-12T22:01:48.870Z,29.53
2018-07-12T22:04:17.250Z,31.00
2018-07-12T22:09:00.928Z,32.37
2018-07-12T22:11:29.203Z,34.67
2018-07-12T22:13:57.468Z,31.90
2018-07-12T22:16:25.726Z,34.30
2018-07-12T22:18:54.054Z,30.90
2018-07-12T22:21:22.326Z,34.37
2018-07-12T22:23:50.596Z,31.73
2018-07-12T22:26:18.906Z,30.90
2018-07-12T22:28:47.196Z,36.40
2018-07-12T22:31:15.462Z,29.77
2018-07-12T22:33:43.738Z,36.47
2018-07-12T22:36:12.181Z,35.47
2018-07-12T22:38:40.497Z,34.80
2018-07-12T22:41:08.770Z,31.67
2018-07-12T22:43:37.045Z,34.70
2018-07-12T22:46:05.350Z,32.53
2018-07-12T22:48:33.787Z,37.50
2018-07-12T22:51:01.947Z,35.97
2018-07-12T22:53:30.248Z,33.03
2018-07-12T22:55:58.765Z,34.67
2018-07-12T22:58:27.104Z,30.93
2018-07-12T23:00:55.489Z,32.57
2018-07-12T23:03:23.769Z,35.23
2018-07-12T23:05:52.058Z,35.60
2018-07-12T23:08:20.334Z,38.40
2018-07-12T23:10:48.629Z,34.00
2018-07-12T23:13:16.899Z,33.47
2018-07-12T23:15:45.165Z,34.37
2018-07-12T23:18:13.421Z,32.83
2018-07-12T23:20:41.725Z,31.00
2018-07-12T23:23:09.986Z,35.00
2018-07-12T23:25:38.333Z,31.43
2018-07-12T23:28:06.641Z,32.93
2018-07-12T23:30:34.938Z,31.13
2018-07-12T23:33:03.362Z,33.50
2018-07-12T23:35:31.601Z,30.00
2018-07-12T23:37:59.886Z,29.60
2018-07-12T23:40:28.141Z,27.73
2018-07-12T23:42:56.502Z,35.40
2018-07-12T23:45:24.843Z,30.67
2018-07-12T23:47:53.270Z,30.73
2018-07-12T23:50:21.574Z,25.23
2018-07-12T23:52:49.857Z,33.93
2018-07-12T23:55:18.121Z,25.70
2018-07-12T23:57:46.380Z,30.93
